createdAt,value
2019-03-16T00:03:45.798Z,7.60
2019-03-16T00:07:57.071Z,7.60
2019-03-16T00:12:08.402Z,7.50
2019-03-16T00:16:19.663Z,7.50
2019-03-16T00:20:31.456Z,7.50
2019-03-16T00:24:43.950Z,7.40
2019-03-16T00:28:55.169Z,7.40
2019-03-16T00:33:06.312Z,7.40
2019-03-16T00:37:17.590Z,7.30
2019-03-16T00:41:28.733Z,7.30
2019-03-16T00:45:40.019Z,7.30
2019-03-16T00:49:51.277Z,7.30
2019-03-16T00:54:02.574Z,7.20
2019-03-16T00:58:15.282Z,7.20
2019-03-16T01:02:27.606Z,7.20
2019-03-16T01:06:39.036Z,7.20
2019-03-16T01:10:50.467Z,7.30
2019-03-16T01:15:03.329Z,7.20
2019-03-16T01:19:16.147Z,7.20
2019-03-16T01:23:27.556Z,7.20
2019-03-16T01:27:38.215Z,7.10
2019-03-16T01:31:48.813Z,7.20
2019-03-16T01:36:00.736Z,7.20
2019-03-16T01:40:14.165Z,7.20
2019-03-16T01:44:25.510Z,7.20
2019-03-16T01:48:37.529Z,7.20
2019-03-16T01:52:48.858Z,7.30
2019-03-16T01:57:00.030Z,7.30
2019-03-16T02:01:11.195Z,7.30
2019-03-16T02:05:22.783Z,7.30
2019-03-16T02:09:34.018Z,7.20
2019-03-16T02:13:46.572Z,7.30
2019-03-16T02:17:56.969Z,7.30
2019-03-16T02:22:09.820Z,7.40
2019-03-16T02:26:21.054Z,7.40
2019-03-16T02:30:32.346Z,7.40
2019-03-16T02:34:44.500Z,7.40
2019-03-16T02:38:57.392Z,7.30
2019-03-16T02:43:08.564Z,7.40
2019-03-16T02:47:19.805Z,7.30
2019-03-16T02:51:31.108Z,7.40
2019-03-16T02:55:42.437Z,7.40
2019-03-16T02:59:54.353Z,7.40
2019-03-16T03:04:07.056Z,7.30
2019-03-16T03:08:18.441Z,7.30
2019-03-16T03:12:31.323Z,7.40
2019-03-16T03:16:42.703Z,7.30
2019-03-16T03:20:53.881Z,7.30
2019-03-16T03:25:05.998Z,7.40
2019-03-16T03:29:17.139Z,7.30
2019-03-16T03:33:56.250Z,7.30
2019-03-16T03:37:41.545Z,7.40
2019-03-16T03:41:52.752Z,7.30
2019-03-16T03:46:04.052Z,7.20
2019-03-16T03:50:15.784Z,7.20
2019-03-16T03:54:27.041Z,7.10
2019-03-16T03:58:38.499Z,7.10
2019-03-16T04:02:49.697Z,7.10
2019-03-16T04:07:01.062Z,7.00
2019-03-16T04:11:13.341Z,7.00
2019-03-16T04:15:24.462Z,7.10
2019-03-16T04:19:37.279Z,7.00
2019-03-16T04:23:48.400Z,7.00
2019-03-16T04:27:59.742Z,7.00
2019-03-16T04:32:10.965Z,7.10
2019-03-16T04:36:22.115Z,7.00
2019-03-16T04:40:33.749Z,7.00
2019-03-16T04:44:45.027Z,7.10
2019-03-16T04:48:56.200Z,7.10
2019-03-16T04:53:08.973Z,7.10
2019-03-16T04:57:21.314Z,7.10
2019-03-16T05:01:32.773Z,7.10
2019-03-16T05:05:43.900Z,7.10
2019-03-16T05:09:55.179Z,7.20
2019-03-16T05:14:06.469Z,7.20
2019-03-16T05:18:17.748Z,7.20
2019-03-16T05:22:28.860Z,7.20
2019-03-16T05:26:42.952Z,7.10
2019-03-16T05:30:55.390Z,7.10
2019-03-16T05:35:07.773Z,7.10
2019-03-16T05:39:19.072Z,7.20
2019-03-16T05:43:30.427Z,7.20
2019-03-16T05:47:40.715Z,7.30
2019-03-16T05:51:50.868Z,7.30
2019-03-16T05:56:05.405Z,7.30
2019-03-16T06:00:17.027Z,7.30
2019-03-16T06:04:29.768Z,7.30
2019-03-16T06:08:41.040Z,7.40
2019-03-16T06:12:52.263Z,7.30
2019-03-16T06:17:03.487Z,7.40
2019-03-16T06:21:15.381Z,7.30
2019-03-16T06:25:26.635Z,7.30
2019-03-16T06:29:37.322Z,7.30
2019-03-16T06:33:48.446Z,7.40
2019-03-16T06:37:59.638Z,7.40
2019-03-16T06:42:10.806Z,7.40
2019-03-16T06:46:22.093Z,7.40
2019-03-16T06:50:37.535Z,7.50
2019-03-16T06:54:48.968Z,7.50
2019-03-16T06:59:00.244Z,7.50
2019-03-16T07:03:12.152Z,7.50
2019-03-16T07:07:23.336Z,7.60
2019-03-16T07:11:37.148Z,7.60
2019-03-16T07:15:49.903Z,7.70
2019-03-16T07:20:01.280Z,7.70
2019-03-16T07:24:14.142Z,7.80
2019-03-16T07:28:25.360Z,7.80
2019-03-16T07:32:37.692Z,7.80
2019-03-16T07:36:48.956Z,7.80
2019-03-16T07:41:00.083Z,7.90
2019-03-16T07:45:12.650Z,7.90
2019-03-16T07:49:23.948Z,8.00
2019-03-16T07:53:36.000Z,8.00
2019-03-16T07:57:47.126Z,8.10
2019-03-16T08:01:59.028Z,8.10
2019-03-16T08:06:10.245Z,8.10
2019-03-16T08:10:21.598Z,8.20
2019-03-16T08:14:32.768Z,8.20
2019-03-16T08:18:44.040Z,8.10
2019-03-16T08:22:55.385Z,8.00
2019-03-16T08:27:07.642Z,7.90
2019-03-16T08:31:19.069Z,7.70
2019-03-16T08:35:30.315Z,7.60
2019-03-16T08:39:43.490Z,7.60
2019-03-16T08:43:55.344Z,7.60
2019-03-16T08:48:06.582Z,7.50
2019-03-16T08:52:17.732Z,7.60
2019-03-16T08:56:30.333Z,7.60
2019-03-16T09:00:42.452Z,7.60
2019-03-16T09:04:53.579Z,7.50
2019-03-16T09:09:07.825Z,7.50
2019-03-16T09:13:18.993Z,7.20
2019-03-16T09:17:32.939Z,7.00
2019-03-16T09:21:43.855Z,6.90
2019-03-16T09:25:55.153Z,6.90
2019-03-16T09:30:09.471Z,6.70
2019-03-16T09:34:20.759Z,6.60
2019-03-16T09:38:32.966Z,6.50
2019-03-16T09:42:45.824Z,6.40
2019-03-16T09:46:57.067Z,6.40
2019-03-16T09:51:09.794Z,6.40
2019-03-16T09:55:20.954Z,6.20
2019-03-16T09:59:32.325Z,6.20
2019-03-16T10:03:43.727Z,6.20
2019-03-16T10:07:55.041Z,6.20
2019-03-16T10:12:06.189Z,6.10
2019-03-16T10:16:17.437Z,6.10
2019-03-16T10:20:28.604Z,6.10
2019-03-16T10:24:40.163Z,6.00
2019-03-16T10:28:51.320Z,5.90
2019-03-16T10:33:03.489Z,5.90
2019-03-16T10:37:14.712Z,5.90
2019-03-16T10:41:25.881Z,6.10
2019-03-16T10:45:37.756Z,6.30
2019-03-16T10:49:49.548Z,6.40
2019-03-16T10:54:01.466Z,6.40
2019-03-16T10:58:12.845Z,6.50
2019-03-16T11:02:24.036Z,6.50
2019-03-16T11:06:35.426Z,6.60
2019-03-16T11:10:47.172Z,6.70
2019-03-16T11:14:58.456Z,6.70
2019-03-16T11:19:09.780Z,6.80
2019-03-16T11:23:21.769Z,6.80
2019-03-16T11:27:33.019Z,6.90
2019-03-16T11:31:44.781Z,7.00
2019-03-16T11:35:58.887Z,7.00
2019-03-16T11:40:13.118Z,7.10
2019-03-16T11:44:24.403Z,7.10
2019-03-16T11:48:35.780Z,7.00
2019-03-16T11:52:48.639Z,7.10
2019-03-16T11:56:59.797Z,7.20
2019-03-16T12:01:10.923Z,7.10
2019-03-16T12:05:22.191Z,7.20
2019-03-16T12:09:34.972Z,7.20
2019-03-16T12:13:46.748Z,7.20
2019-03-16T12:17:57.946Z,7.10
2019-03-16T12:22:10.176Z,7.00
2019-03-16T12:26:22.381Z,7.00
2019-03-16T12:30:34.720Z,7.10
2019-03-16T12:34:47.425Z,7.30
2019-03-16T12:38:58.679Z,7.40
2019-03-16T12:43:11.478Z,7.50
2019-03-16T12:47:24.292Z,7.60
2019-03-16T12:51:35.404Z,7.70
2019-03-16T12:55:46.646Z,7.70
2019-03-16T12:59:58.354Z,7.70
2019-03-16T13:04:09.645Z,7.80
2019-03-16T13:08:19.851Z,7.90
2019-03-16T13:12:31.101Z,8.00
2019-03-16T13:16:42.927Z,8.10
2019-03-16T13:20:54.063Z,8.20
2019-03-16T13:25:08.201Z,8.40
2019-03-16T13:29:19.363Z,8.40
2019-03-16T13:33:31.741Z,8.50
2019-03-16T13:37:42.909Z,8.50
2019-03-16T13:41:56.938Z,8.60
2019-03-16T13:46:08.104Z,8.60
2019-03-16T13:50:22.432Z,8.80
2019-03-16T13:54:34.507Z,8.80
2019-03-16T13:58:54.953Z,8.90
2019-03-16T14:02:59.675Z,9.00
2019-03-16T14:07:11.433Z,9.00
2019-03-16T14:11:22.587Z,9.20
2019-03-16T14:15:34.195Z,9.20
2019-03-16T14:19:49.015Z,9.30
2019-03-16T14:24:00.270Z,9.30
2019-03-16T14:28:10.354Z,9.40
2019-03-16T14:32:21.470Z,9.50
2019-03-16T14:36:34.487Z,9.50
2019-03-16T14:40:46.074Z,9.60
2019-03-16T14:44:57.333Z,9.70
2019-03-16T14:49:08.541Z,9.90
2019-03-16T14:53:19.815Z,10.00
2019-03-16T14:57:31.013Z,10.20
2019-03-16T15:01:42.373Z,10.50
2019-03-16T15:05:55.133Z,10.70
2019-03-16T15:10:11.878Z,10.90
2019-03-16T15:14:23.137Z,11.10
2019-03-16T15:18:34.428Z,11.10
2019-03-16T15:22:46.439Z,11.20
2019-03-16T15:27:00.436Z,11.30
2019-03-16T15:31:13.006Z,11.40
2019-03-16T15:35:27.184Z,11.40
2019-03-16T15:39:40.343Z,11.40
2019-03-16T15:43:51.951Z,11.40
2019-03-16T15:48:02.561Z,11.40
2019-03-16T15:52:13.798Z,11.50
2019-03-16T15:56:27.679Z,11.50
2019-03-16T16:00:42.593Z,11.50
2019-03-16T16:04:53.755Z,11.50
2019-03-16T16:09:06.391Z,11.50
2019-03-16T16:13:17.572Z,11.40
2019-03-16T16:17:30.923Z,11.30
2019-03-16T16:21:42.054Z,11.30
2019-03-16T16:25:54.816Z,11.40
2019-03-16T16:30:14.392Z,11.40
2019-03-16T16:34:24.464Z,11.40
2019-03-16T16:38:35.990Z,11.30
2019-03-16T16:42:47.227Z,11.40
2019-03-16T16:46:59.313Z,11.40
2019-03-16T16:51:11.099Z,11.30
2019-03-16T16:55:22.325Z,11.30
2019-03-16T16:59:34.601Z,11.30
2019-03-16T17:03:45.963Z,11.20
2019-03-16T17:07:57.214Z,11.20
2019-03-16T17:12:08.355Z,11.20
2019-03-16T17:16:21.261Z,11.20
2019-03-16T17:20:32.384Z,11.10
2019-03-16T17:24:44.921Z,11.10
2019-03-16T17:28:57.535Z,11.00
2019-03-16T17:33:08.792Z,11.10
2019-03-16T17:37:19.941Z,11.10
2019-03-16T17:41:31.161Z,11.00
2019-03-16T17:45:42.369Z,10.90
2019-03-16T17:49:53.943Z,11.00
2019-03-16T17:54:05.153Z,11.10
2019-03-16T17:58:18.858Z,11.10
2019-03-16T18:02:32.391Z,11.10
2019-03-16T18:06:43.553Z,11.10
2019-03-16T18:10:54.812Z,11.10
2019-03-16T18:15:11.619Z,11.00
2019-03-16T18:19:21.797Z,11.00
2019-03-16T18:23:34.535Z,11.00
2019-03-16T18:27:45.754Z,11.00
2019-03-16T18:32:07.279Z,11.00
2019-03-16T18:36:11.584Z,11.00
2019-03-16T18:40:23.435Z,11.00
2019-03-16T18:44:34.717Z,11.00
2019-03-16T18:48:45.937Z,11.10
2019-03-16T18:52:57.256Z,11.00
2019-03-16T18:57:09.104Z,11.00
2019-03-16T19:01:24.430Z,11.00
2019-03-16T19:05:36.049Z,11.00
2019-03-16T19:09:47.300Z,11.00
2019-03-16T19:13:58.768Z,10.90
2019-03-16T19:18:11.717Z,10.90
2019-03-16T19:22:22.867Z,10.90
2019-03-16T19:26:34.220Z,10.80
2019-03-16T19:30:47.061Z,10.80
2019-03-16T19:35:00.817Z,10.80
2019-03-16T19:39:15.004Z,10.80
2019-03-16T19:43:26.351Z,10.70
2019-03-16T19:47:37.604Z,10.70
2019-03-16T19:51:48.867Z,10.60
2019-03-16T19:56:00.098Z,10.60
2019-03-16T20:00:20.519Z,10.60
2019-03-16T20:04:36.229Z,10.50
2019-03-16T20:08:44.631Z,10.40
2019-03-16T20:12:55.257Z,10.50
2019-03-16T20:17:08.954Z,10.40
2019-03-16T20:21:20.131Z,10.40
2019-03-16T20:25:31.503Z,10.40
2019-03-16T20:29:44.360Z,10.30
2019-03-16T20:33:55.492Z,10.30
2019-03-16T20:38:06.756Z,10.30
2019-03-16T20:42:17.911Z,10.20
2019-03-16T20:46:29.149Z,10.20
2019-03-16T20:50:40.779Z,10.30
2019-03-16T20:54:52.044Z,10.30
2019-03-16T20:59:04.561Z,10.40
2019-03-16T21:03:16.617Z,10.30
2019-03-16T21:07:27.910Z,10.30
2019-03-16T21:11:39.078Z,10.30
2019-03-16T21:15:53.227Z,10.20
2019-03-16T21:20:09.513Z,10.20
2019-03-16T21:24:20.897Z,10.10
2019-03-16T21:28:32.139Z,10.10
2019-03-16T21:32:43.474Z,10.00
2019-03-16T21:36:55.964Z,9.90
2019-03-16T21:41:07.203Z,9.90
2019-03-16T21:45:19.663Z,9.90
2019-03-16T21:49:31.834Z,9.80
2019-03-16T21:53:41.864Z,9.70
2019-03-16T21:57:53.254Z,9.70
2019-03-16T22:02:04.535Z,9.60
2019-03-16T22:06:15.778Z,9.60
2019-03-16T22:10:26.921Z,9.50
2019-03-16T22:14:39.460Z,9.60
2019-03-16T22:18:51.314Z,9.60
2019-03-16T22:23:06.275Z,9.60
2019-03-16T22:27:16.975Z,9.60
2019-03-16T22:31:28.355Z,9.60
2019-03-16T22:35:39.676Z,9.60
2019-03-16T22:39:51.961Z,9.60
2019-03-16T22:44:03.232Z,9.60
2019-03-16T22:48:14.608Z,9.60
2019-03-16T22:52:25.787Z,9.60
2019-03-16T22:56:38.787Z,9.50
2019-03-16T23:00:52.371Z,9.50
2019-03-16T23:05:07.256Z,9.50
2019-03-16T23:09:18.472Z,9.50
2019-03-16T23:13:32.641Z,9.50
2019-03-16T23:17:44.479Z,9.40
2019-03-16T23:21:55.795Z,9.30
2019-03-16T23:26:07.844Z,9.20
2019-03-16T23:30:19.012Z,9.10
2019-03-16T23:34:30.417Z,9.10
2019-03-16T23:38:41.863Z,9.10
2019-03-16T23:42:53.132Z,9.00
2019-03-16T23:47:04.488Z,9.10
2019-03-16T23:51:17.556Z,9.10
2019-03-16T23:55:28.846Z,9.10
2019-03-16T23:59:40.101Z,9.00
